Terminal Aerodrome Forecast
Issued by NWS

Home | Current Version | Previous Version | Text Only | Print | Product List | Glossary On
Versions: 1 2 3 4 5 6 7 8 9 10 11 12 13 14 15 16 17 18 19 20
000
FTUS46 KMFR 252339
TAFOTH
TAF
KOTH 252339Z 2600/2624 36018G25KT P6SM SKC
     FM260300 34008KT P6SM SKC
     FM261200 16002KT 2SM BR FEW002
     FM261700 24003KT 4SM BR SKC
     FM262000 32012KT P6SM SKC=

USA.gov is the U.S. government's official web portal to all federal, state and local government web resources and services.